This is the latest recevied weather packets stored in our database for station/object KF7BKV-1. If no packets are shown the sender has not sent any weather packets the latest 1 day(s).
| Time | Temp. | Humidity | Pressure | Rain* | Wind** | Luminosity | Snow |
|---|---|---|---|---|---|---|---|
| 1778075764 | 10° C | 42% | 1020.6 hPa | 0 mm | 1.34 m/s, 6° | - | - |
| 1778075463 | 10° C | 42% | 1020.5 hPa | 0 mm | 0.89 m/s, 40° | - | - |
| 1778074624 | 8.89° C | 44% | 1020.3 hPa | 0 mm | 1.34 m/s, 55° | - | - |
| 1778069944 | 5° C | 60% | 1020 hPa | 0 mm | 0 m/s | - | - |
| 1778069823 | 5° C | 60% | 1020 hPa | 0 mm | 0 m/s | - | - |
| 1778068203 | 6.11° C | 56% | 1019.8 hPa | 0 mm | 0.45 m/s, 31° | - | - |
| 1778068145 | 6.11° C | 56% | 1019.8 hPa | 0 mm | 0.45 m/s, 31° | - | - |
| 1778067424 | 6.11° C | 55% | 1019.9 hPa | 0 mm | 0.45 m/s, 0° | - | - |
| 1778066343 | 7.22° C | 53% | 1019.5 hPa | 0 mm | 0.89 m/s, 89° | - | - |
| 1778063883 | 7.78° C | 50% | 1018.8 hPa | 0 mm | 1.79 m/s, 91° | - | - |
| 1778062923 | 8.33° C | 49% | 1018.8 hPa | 0 mm | 1.79 m/s, 146° | - | - |
| 1778062443 | 8.33° C | 49% | 1018.8 hPa | 0 mm | 2.24 m/s, 91° | - | - |
| 1778062143 | 8.33° C | 49% | 1018.6 hPa | 0 mm | 1.34 m/s, 109° | - | - |
| 1778061663 | 8.33° C | 50% | 1018.5 hPa | 0 mm | 1.34 m/s, 118° | - | - |
| 1778059563 | 9.44° C | 46% | 1018.2 hPa | 0 mm | 2.24 m/s, 115° | - | - |
| 1778059443 | 9.44° C | 47% | 1018.1 hPa | 0 mm | 2.24 m/s, 61° | - | - |
| 1778059023 | 10° C | 45% | 1018.1 hPa | 0 mm | 2.24 m/s, 131° | - | - |
| 1778058243 | 10° C | 44% | 1017.9 hPa | 0 mm | 2.68 m/s, 147° | - | - |
| 1778057824 | 10.56° C | 43% | 1017.8 hPa | 0 mm | 4.47 m/s, 124° | - | - |
| 1778057523 | 10.56° C | 43% | 1017.5 hPa | 0 mm | 4.02 m/s, 109° | - | - |
| 1778057224 | 10.56° C | 43% | 1017.4 hPa | 0 mm | 4.02 m/s, 73° | - | - |
| 1778057044 | 10.56° C | 42% | 1017.3 hPa | 0 mm | 7.6 m/s, 124° | - | - |
| 1778056324 | 10.56° C | 42% | 1016.9 hPa | 0 mm | 5.81 m/s, 115° | - | - |
| 1778055243 | 11.11° C | 41% | 1016.9 hPa | 0 mm | 4.92 m/s, 114° | - | - |
| 1778055064 | 11.11° C | 41% | 1016.9 hPa | 0 mm | 4.92 m/s, 114° | - | - |
* Rain latest hour (hover to see other rain measurements)
** Current wind speed in m/s (hover to see current wind gust speed)